createdAt,value
2022-10-19T00:01:10.224Z,3.67
2022-10-19T00:03:39.167Z,3.63
2022-10-19T00:06:23.272Z,3.60
2022-10-19T00:08:51.950Z,3.20
2022-10-19T00:11:30.380Z,3.37
2022-10-19T00:14:00.583Z,3.73
2022-10-19T00:16:37.252Z,3.20
2022-10-19T00:19:08.546Z,2.97
2022-10-19T00:21:44.422Z,3.73
2022-10-19T00:24:13.179Z,3.80
2022-10-19T00:26:49.286Z,3.30
2022-10-19T00:29:18.273Z,3.80
2022-10-19T00:31:53.300Z,3.40
2022-10-19T00:34:21.825Z,3.50
2022-10-19T00:36:57.313Z,3.57
2022-10-19T00:39:26.148Z,3.33
2022-10-19T00:42:02.395Z,3.50
2022-10-19T00:45:11.331Z,3.60
2022-10-19T00:48:00.504Z,3.30
2022-10-19T00:50:35.469Z,3.80
2022-10-19T00:53:07.119Z,3.43
2022-10-19T00:55:42.307Z,3.83
2022-10-19T00:58:12.394Z,3.93
2022-10-19T01:00:47.404Z,3.97
2022-10-19T01:03:16.353Z,3.80
2022-10-19T01:05:52.291Z,3.80
2022-10-19T01:08:21.143Z,3.67
2022-10-19T01:11:05.447Z,3.93
2022-10-19T01:13:45.693Z,3.83
2022-10-19T01:16:27.346Z,3.50
2022-10-19T01:19:03.023Z,3.80
2022-10-19T01:21:44.507Z,3.93
2022-10-19T01:24:49.847Z,3.77
2022-10-19T01:28:22.321Z,4.07
2022-10-19T01:30:59.136Z,4.53
2022-10-19T01:33:44.455Z,3.67
2022-10-19T01:36:22.792Z,4.63
2022-10-19T01:39:02.343Z,3.87
2022-10-19T01:41:40.646Z,4.60
2022-10-19T01:44:22.375Z,4.17
2022-10-19T01:46:55.755Z,4.60
2022-10-19T01:49:42.489Z,4.23
2022-10-19T01:52:14.886Z,3.87
2022-10-19T01:54:52.496Z,4.00
2022-10-19T01:57:24.332Z,4.30
2022-10-19T02:00:00.549Z,4.07
2022-10-19T02:02:31.571Z,3.97
2022-10-19T02:05:07.356Z,4.30
2022-10-19T02:07:36.616Z,4.00
2022-10-19T02:12:47.010Z,3.70
2022-10-19T02:15:26.529Z,4.20
2022-10-19T02:17:59.981Z,4.13
2022-10-19T02:20:36.351Z,4.33
2022-10-19T02:23:06.412Z,4.10
2022-10-19T02:25:42.395Z,4.80
2022-10-19T02:28:10.948Z,4.00
2022-10-19T02:30:46.402Z,4.90
2022-10-19T02:33:17.034Z,5.00
2022-10-19T02:35:52.398Z,4.40
2022-10-19T02:38:24.010Z,4.60
2022-10-19T02:41:09.410Z,4.57
2022-10-19T02:43:40.660Z,4.83
2022-10-19T02:46:22.328Z,5.30
2022-10-19T02:48:59.846Z,4.67
2022-10-19T02:51:40.385Z,4.77
2022-10-19T02:54:10.035Z,5.30
2022-10-19T02:56:45.436Z,5.00
2022-10-19T02:59:13.800Z,5.13
2022-10-19T03:01:48.546Z,5.63
2022-10-19T03:04:18.657Z,5.10
2022-10-19T03:06:54.574Z,6.00
2022-10-19T03:09:23.010Z,5.43
2022-10-19T03:11:58.548Z,6.57
2022-10-19T03:14:27.015Z,6.30
2022-10-19T03:17:02.381Z,6.40
2022-10-19T03:19:33.132Z,6.50
2022-10-19T03:22:08.636Z,6.40
2022-10-19T03:24:37.953Z,6.40
2022-10-19T03:27:13.498Z,6.70
2022-10-19T03:29:41.979Z,6.80
2022-10-19T03:32:17.431Z,6.87
2022-10-19T03:34:47.553Z,6.70
2022-10-19T03:37:22.549Z,6.70
2022-10-19T03:39:51.026Z,7.37
2022-10-19T03:42:26.363Z,7.00
2022-10-19T03:44:54.898Z,6.97
2022-10-19T03:47:29.479Z,7.17
2022-10-19T03:50:06.989Z,7.40
2022-10-19T03:52:42.426Z,7.40
2022-10-19T03:55:11.918Z,6.93
2022-10-19T03:57:46.500Z,7.57
2022-10-19T04:00:16.109Z,7.43
2022-10-19T04:02:51.588Z,7.53
2022-10-19T04:05:21.816Z,7.43
2022-10-19T04:07:56.646Z,7.03
2022-10-19T04:10:25.094Z,7.10
2022-10-19T04:13:01.086Z,7.20
2022-10-19T04:15:29.738Z,6.90
2022-10-19T04:18:04.617Z,7.67
2022-10-19T04:20:34.677Z,7.00
2022-10-19T04:23:09.571Z,7.70
2022-10-19T04:25:38.099Z,6.77
2022-10-19T04:28:13.512Z,6.53
2022-10-19T04:30:41.872Z,6.97
2022-10-19T04:33:16.621Z,6.73
2022-10-19T04:35:46.721Z,6.33
2022-10-19T04:38:21.585Z,6.50
2022-10-19T04:40:50.015Z,6.77
2022-10-19T04:43:24.501Z,6.30
2022-10-19T04:45:52.987Z,6.80
2022-10-19T04:48:27.668Z,6.17
2022-10-19T04:51:03.930Z,6.50
2022-10-19T04:53:38.687Z,6.67
2022-10-19T04:56:08.820Z,6.73
2022-10-19T04:58:43.673Z,6.23
2022-10-19T05:01:13.486Z,6.50
2022-10-19T05:03:49.782Z,6.40
2022-10-19T05:06:19.900Z,6.17
2022-10-19T05:08:56.514Z,6.63
2022-10-19T05:11:25.555Z,6.60
2022-10-19T05:14:00.612Z,6.80
2022-10-19T05:16:29.229Z,6.70
2022-10-19T05:19:06.674Z,6.33
2022-10-19T05:21:36.893Z,6.80
2022-10-19T05:24:12.582Z,7.47
2022-10-19T05:26:41.137Z,7.80
2022-10-19T05:29:20.537Z,7.87
2022-10-19T05:31:49.217Z,6.97
2022-10-19T05:34:24.486Z,7.67
2022-10-19T05:36:56.871Z,8.07
2022-10-19T05:39:31.675Z,7.80
2022-10-19T05:42:00.168Z,7.87
2022-10-19T05:44:35.883Z,8.00
2022-10-19T05:47:11.649Z,8.03
2022-10-19T05:49:59.553Z,8.40
2022-10-19T05:52:36.567Z,8.60
2022-10-19T05:55:05.425Z,8.40
2022-10-19T05:57:40.589Z,8.50
2022-10-19T06:00:10.732Z,9.53
2022-10-19T06:02:45.598Z,9.10
2022-10-19T06:05:14.397Z,9.20
2022-10-19T06:07:50.586Z,10.07
2022-10-19T06:10:21.088Z,10.30
2022-10-19T06:12:56.541Z,10.07
2022-10-19T06:15:25.043Z,10.00
2022-10-19T06:17:59.658Z,10.50
2022-10-19T06:20:29.705Z,11.33
2022-10-19T06:23:06.684Z,11.07
2022-10-19T06:25:35.899Z,10.17
2022-10-19T06:28:12.748Z,11.50
2022-10-19T06:30:41.563Z,10.80
2022-10-19T06:33:16.616Z,10.20
2022-10-19T06:35:45.106Z,10.50
2022-10-19T06:38:21.578Z,11.67
2022-10-19T06:40:50.522Z,10.80
2022-10-19T06:43:25.762Z,10.57
2022-10-19T06:45:54.238Z,10.73
2022-10-19T06:48:29.655Z,11.33
2022-10-19T06:51:07.776Z,10.90
2022-10-19T06:53:48.345Z,10.53
2022-10-19T06:56:17.683Z,10.83
2022-10-19T06:58:53.738Z,11.70
2022-10-19T07:01:22.821Z,10.60
2022-10-19T07:03:59.647Z,11.33
2022-10-19T07:06:29.465Z,11.20
2022-10-19T07:09:05.659Z,11.30
2022-10-19T07:11:34.058Z,11.53
2022-10-19T07:14:09.675Z,11.20
2022-10-19T07:16:38.093Z,11.40
2022-10-19T07:19:13.780Z,10.97
2022-10-19T07:21:44.273Z,10.70
2022-10-19T07:24:20.787Z,11.00
2022-10-19T07:26:49.339Z,11.37
2022-10-19T07:29:24.797Z,11.03
2022-10-19T07:31:53.444Z,10.73
2022-10-19T07:34:29.133Z,10.70
2022-10-19T07:36:57.782Z,10.23
2022-10-19T07:39:34.959Z,10.33
2022-10-19T07:42:03.464Z,10.47
2022-10-19T07:44:38.788Z,11.03
2022-10-19T07:47:07.434Z,10.73
2022-10-19T07:49:42.831Z,10.37
2022-10-19T07:52:18.387Z,10.03
2022-10-19T07:54:56.805Z,10.03
2022-10-19T07:57:25.400Z,9.20
2022-10-19T08:00:00.858Z,9.70
2022-10-19T08:02:39.409Z,8.80
2022-10-19T08:05:24.931Z,9.37
2022-10-19T08:07:53.553Z,8.93
2022-10-19T08:10:29.815Z,8.63
2022-10-19T08:12:58.394Z,8.77
2022-10-19T08:15:35.735Z,8.57
2022-10-19T08:18:04.188Z,8.27
2022-10-19T08:20:38.834Z,7.90
2022-10-19T08:23:07.179Z,8.10
2022-10-19T08:25:44.749Z,7.17
2022-10-19T08:28:13.401Z,7.50
2022-10-19T08:30:48.654Z,7.13
2022-10-19T08:33:17.112Z,6.67
2022-10-19T08:35:51.962Z,6.90
2022-10-19T08:38:20.488Z,6.10
2022-10-19T08:40:59.855Z,6.10
2022-10-19T08:43:36.339Z,6.07
2022-10-19T08:46:31.696Z,6.07
2022-10-19T08:49:22.877Z,6.10
2022-10-19T08:52:02.846Z,5.40
2022-10-19T08:57:36.271Z,5.67
2022-10-19T09:00:16.767Z,6.30
2022-10-19T09:02:57.933Z,6.00
2022-10-19T09:05:43.668Z,6.00
2022-10-19T09:08:17.564Z,5.00
2022-10-19T09:10:55.711Z,5.33
2022-10-19T09:13:41.599Z,5.57
2022-10-19T09:16:25.967Z,5.10
2022-10-19T09:21:46.946Z,5.27
2022-10-19T09:24:29.915Z,5.40
2022-10-19T09:27:07.791Z,5.37
2022-10-19T09:29:45.930Z,5.30
2022-10-19T09:32:24.750Z,4.83
2022-10-19T09:34:55.712Z,4.77
2022-10-19T09:37:31.743Z,4.43
2022-10-19T09:40:00.538Z,4.67
2022-10-19T09:42:39.827Z,4.60
2022-10-19T09:45:19.582Z,4.30
2022-10-19T09:48:00.474Z,4.80
2022-10-19T09:50:45.732Z,4.37
2022-10-19T09:53:27.879Z,4.70
2022-10-19T09:56:02.143Z,4.00
2022-10-19T09:58:38.931Z,4.60
2022-10-19T10:01:39.940Z,5.73
2022-10-19T10:04:18.907Z,4.37
2022-10-19T10:06:50.099Z,4.90
2022-10-19T10:09:26.822Z,4.70
2022-10-19T10:11:58.637Z,4.60
2022-10-19T10:14:38.754Z,4.67
2022-10-19T10:17:15.923Z,5.07
2022-10-19T10:19:59.923Z,4.43
2022-10-19T10:22:31.019Z,4.77
2022-10-19T10:25:05.851Z,4.20
2022-10-19T10:27:37.086Z,4.37
2022-10-19T10:30:15.564Z,4.40
2022-10-19T10:32:49.509Z,4.97
2022-10-19T10:35:27.774Z,4.90
2022-10-19T10:38:10.199Z,5.00
2022-10-19T10:40:47.768Z,4.80
2022-10-19T10:43:19.012Z,4.80
2022-10-19T10:45:56.801Z,5.20
2022-10-19T10:48:32.907Z,4.50
2022-10-19T10:51:15.946Z,5.13
2022-10-19T10:53:45.044Z,4.97
2022-10-19T10:56:33.833Z,5.07
2022-10-19T10:59:08.099Z,5.23
2022-10-19T11:01:47.881Z,9.30
2022-10-19T11:04:22.004Z,5.60
2022-10-19T11:07:03.785Z,5.53
2022-10-19T11:09:37.939Z,5.07
2022-10-19T11:12:16.788Z,5.67
2022-10-19T11:14:49.832Z,5.33
2022-10-19T11:17:28.910Z,4.57
2022-10-19T11:19:58.952Z,5.20
2022-10-19T11:22:38.054Z,5.43
2022-10-19T11:25:26.381Z,5.23
2022-10-19T11:28:12.045Z,4.67
2022-10-19T11:30:52.033Z,4.80
2022-10-19T11:33:57.940Z,4.73
2022-10-19T11:36:43.903Z,5.33
2022-10-19T11:39:43.159Z,5.80
2022-10-19T11:42:20.043Z,5.43
2022-10-19T11:45:04.015Z,5.20
2022-10-19T11:47:51.670Z,5.43
2022-10-19T11:50:49.596Z,5.33
2022-10-19T11:53:33.044Z,5.23
2022-10-19T11:56:15.888Z,5.43
2022-10-19T11:58:55.042Z,5.60
2022-10-19T12:01:46.077Z,5.10
2022-10-19T12:04:31.705Z,5.83
2022-10-19T12:07:18.075Z,5.10
2022-10-19T12:09:55.735Z,5.97
2022-10-19T12:12:38.021Z,5.13
2022-10-19T12:15:24.434Z,5.10
2022-10-19T12:18:01.851Z,4.93
2022-10-19T12:20:36.509Z,5.73
2022-10-19T12:23:28.052Z,5.40
2022-10-19T12:26:00.033Z,5.60
2022-10-19T12:28:38.974Z,5.30
2022-10-19T12:31:08.821Z,5.03
2022-10-19T12:33:53.941Z,5.70
2022-10-19T12:36:30.566Z,5.13
2022-10-19T12:39:10.911Z,5.43
2022-10-19T12:41:47.226Z,5.67
2022-10-19T12:44:40.059Z,6.00
2022-10-19T12:47:16.611Z,5.50
2022-10-19T12:49:56.890Z,5.60
2022-10-19T12:52:42.005Z,5.80
2022-10-19T12:55:33.007Z,6.13
2022-10-19T12:58:07.614Z,5.83
2022-10-19T13:00:46.158Z,6.50
2022-10-19T13:03:25.073Z,6.17
2022-10-19T13:06:07.113Z,5.93
2022-10-19T13:08:43.720Z,6.27
2022-10-19T13:11:22.020Z,5.93
2022-10-19T13:14:06.372Z,6.30
2022-10-19T13:17:05.906Z,6.60
2022-10-19T13:19:34.504Z,6.50
2022-10-19T13:22:35.178Z,6.07
2022-10-19T13:25:28.387Z,7.10
2022-10-19T13:28:05.067Z,7.17
2022-10-19T13:31:09.402Z,7.73
2022-10-19T13:34:00.027Z,6.73
2022-10-19T13:36:28.671Z,7.20
2022-10-19T13:39:20.031Z,7.53
2022-10-19T13:41:51.636Z,7.70
2022-10-19T13:44:34.034Z,7.37
2022-10-19T13:47:40.897Z,7.63
2022-10-19T13:50:34.501Z,7.47
2022-10-19T13:53:38.157Z,7.70
2022-10-19T13:56:23.808Z,7.87
2022-10-19T13:59:40.140Z,7.90
2022-10-19T14:02:46.941Z,8.10
2022-10-19T14:05:51.013Z,7.80
2022-10-19T14:08:37.208Z,8.10
2022-10-19T14:11:13.960Z,8.20
2022-10-19T14:13:42.610Z,8.20
2022-10-19T14:16:27.158Z,8.50
2022-10-19T14:18:57.820Z,8.57
2022-10-19T14:21:40.016Z,8.23
2022-10-19T14:24:21.740Z,8.13
2022-10-19T14:26:57.251Z,8.60
2022-10-19T14:29:26.127Z,8.67
2022-10-19T14:32:01.012Z,8.70
2022-10-19T14:34:31.368Z,8.10
2022-10-19T14:37:06.214Z,8.60
2022-10-19T14:39:35.588Z,8.20
2022-10-19T14:42:13.982Z,7.97
2022-10-19T14:44:43.969Z,8.27
2022-10-19T14:47:29.467Z,7.93
2022-10-19T14:50:06.713Z,8.20
2022-10-19T14:52:49.202Z,7.50
2022-10-19T14:55:19.816Z,8.07
2022-10-19T14:57:59.105Z,7.80
2022-10-19T15:00:27.988Z,7.87
2022-10-19T15:03:07.113Z,8.73
2022-10-19T15:05:40.684Z,9.20
2022-10-19T15:08:19.146Z,8.63
2022-10-19T15:10:49.679Z,8.40
2022-10-19T15:13:32.052Z,9.20
2022-10-19T15:16:00.724Z,9.17
2022-10-19T15:18:49.193Z,9.63
2022-10-19T15:21:22.250Z,9.37
2022-10-19T15:23:58.208Z,9.70
2022-10-19T15:26:30.781Z,10.10
2022-10-19T15:29:17.236Z,10.37
2022-10-19T15:31:45.707Z,10.27
2022-10-19T15:34:32.259Z,11.07
2022-10-19T15:37:03.654Z,10.90
2022-10-19T15:39:44.756Z,12.43
2022-10-19T15:42:25.128Z,11.93
2022-10-19T15:45:00.157Z,12.50
2022-10-19T15:47:29.012Z,12.60
2022-10-19T15:50:13.025Z,13.60
2022-10-19T15:52:49.688Z,13.13
2022-10-19T15:55:24.068Z,12.97
2022-10-19T15:58:00.430Z,12.57
2022-10-19T16:00:38.242Z,13.33
2022-10-19T16:03:12.296Z,12.73
2022-10-19T16:05:47.086Z,12.77
2022-10-19T16:08:16.951Z,13.00
2022-10-19T16:10:52.307Z,12.40
2022-10-19T16:13:20.763Z,11.70
2022-10-19T16:16:06.916Z,11.80
2022-10-19T16:18:40.072Z,11.90
2022-10-19T16:21:15.398Z,11.47
2022-10-19T16:23:49.240Z,11.40
2022-10-19T16:26:25.164Z,11.20
2022-10-19T16:28:53.692Z,11.17
2022-10-19T16:31:29.193Z,10.33
2022-10-19T16:33:57.637Z,10.13
2022-10-19T16:36:33.163Z,10.07
2022-10-19T16:39:05.037Z,9.97
2022-10-19T16:41:40.183Z,9.77
2022-10-19T16:44:08.717Z,9.80
2022-10-19T16:46:43.185Z,9.60
2022-10-19T16:49:12.009Z,9.83
2022-10-19T16:52:00.385Z,9.40
2022-10-19T16:54:32.952Z,9.27
2022-10-19T16:57:09.936Z,9.83
2022-10-19T16:59:38.561Z,10.53
2022-10-19T17:02:13.200Z,10.07
2022-10-19T17:04:41.752Z,10.03
2022-10-19T17:07:18.232Z,10.83
2022-10-19T17:09:49.761Z,9.67
2022-10-19T17:12:27.223Z,8.60
2022-10-19T17:15:02.938Z,8.90
2022-10-19T17:17:50.148Z,9.03
2022-10-19T17:20:18.701Z,9.37
2022-10-19T17:22:54.303Z,8.63
2022-10-19T17:25:24.242Z,8.80
2022-10-19T17:27:59.233Z,8.80
2022-10-19T17:30:27.832Z,8.67
2022-10-19T17:33:03.215Z,8.17
2022-10-19T17:35:31.638Z,8.50
2022-10-19T17:38:07.156Z,8.47
2022-10-19T17:40:37.246Z,8.30
2022-10-19T17:43:12.257Z,8.20
2022-10-19T17:45:41.002Z,8.57
2022-10-19T17:48:16.344Z,8.50
2022-10-19T17:51:11.330Z,8.07
2022-10-19T17:53:46.166Z,8.37
2022-10-19T17:56:18.682Z,8.73
2022-10-19T17:58:54.274Z,8.07
2022-10-19T18:01:24.183Z,8.10
2022-10-19T18:03:59.208Z,7.93
2022-10-19T18:06:29.696Z,7.70
2022-10-19T18:09:06.245Z,8.40
2022-10-19T18:11:39.020Z,8.17
2022-10-19T18:14:16.410Z,7.87
2022-10-19T18:16:47.012Z,7.90
2022-10-19T18:19:24.224Z,8.90
2022-10-19T18:21:53.790Z,8.13
2022-10-19T18:24:29.362Z,8.20
2022-10-19T18:26:59.585Z,7.97
2022-10-19T18:29:35.354Z,6.83
2022-10-19T18:34:44.414Z,7.23
2022-10-19T18:37:13.116Z,7.30
2022-10-19T18:39:48.231Z,7.63
2022-10-19T18:42:17.920Z,7.20
2022-10-19T18:44:54.191Z,6.87
2022-10-19T18:47:22.732Z,6.80
2022-10-19T18:49:57.399Z,6.90
2022-10-19T18:52:36.492Z,6.50
2022-10-19T18:55:12.317Z,6.00
2022-10-19T18:57:42.285Z,6.00
2022-10-19T19:00:18.308Z,5.93
2022-10-19T19:02:47.524Z,5.80
2022-10-19T19:05:22.428Z,6.13
2022-10-19T19:07:50.982Z,6.00
2022-10-19T19:10:26.539Z,6.13
2022-10-19T19:12:56.271Z,5.80
2022-10-19T19:15:31.407Z,6.23
2022-10-19T19:17:59.937Z,6.07
2022-10-19T19:20:35.290Z,6.07
2022-10-19T19:23:04.108Z,5.87
2022-10-19T19:25:39.304Z,6.00
2022-10-19T19:28:09.365Z,5.87
2022-10-19T19:30:48.278Z,5.87
2022-10-19T19:33:16.839Z,5.83
2022-10-19T19:35:52.434Z,6.30
2022-10-19T19:38:20.961Z,6.10
2022-10-19T19:40:56.362Z,6.50
2022-10-19T19:43:26.951Z,6.17
2022-10-19T19:46:08.094Z,5.93
2022-10-19T19:48:37.804Z,6.00
2022-10-19T19:51:13.396Z,6.47
2022-10-19T19:53:42.068Z,5.80
2022-10-19T19:56:19.489Z,6.20
2022-10-19T19:58:49.730Z,5.77
2022-10-19T20:01:27.372Z,6.40
2022-10-19T20:03:56.413Z,5.77
2022-10-19T20:06:31.386Z,6.77
2022-10-19T20:09:00.419Z,6.33
2022-10-19T20:11:41.839Z,6.33
2022-10-19T20:14:12.743Z,6.27
2022-10-19T20:16:48.413Z,6.23
2022-10-19T20:19:17.089Z,6.73
2022-10-19T20:21:52.547Z,6.30
2022-10-19T20:24:21.088Z,6.17
2022-10-19T20:26:56.324Z,6.40
2022-10-19T20:29:26.207Z,6.57
2022-10-19T20:32:01.481Z,6.67
2022-10-19T20:34:29.882Z,6.70
2022-10-19T20:37:04.432Z,6.87
2022-10-19T20:39:32.984Z,6.30
2022-10-19T20:42:08.369Z,6.63
2022-10-19T20:44:38.193Z,6.80
2022-10-19T20:47:13.357Z,6.67
2022-10-19T20:49:42.222Z,6.50
2022-10-19T20:52:17.340Z,6.73
2022-10-19T20:54:45.792Z,7.10
2022-10-19T20:57:20.381Z,6.93
2022-10-19T20:59:50.720Z,6.50
2022-10-19T21:02:25.408Z,6.67
2022-10-19T21:04:53.826Z,7.00
2022-10-19T21:07:28.358Z,6.20
2022-10-19T21:10:03.547Z,6.30
2022-10-19T21:12:32.736Z,6.90
2022-10-19T21:15:09.562Z,7.00
2022-10-19T21:17:38.113Z,7.53
2022-10-19T21:20:13.590Z,6.80
2022-10-19T21:22:42.360Z,6.50
2022-10-19T21:25:25.057Z,6.93
2022-10-19T21:27:53.741Z,7.13
2022-10-19T21:30:30.419Z,7.27
2022-10-19T21:32:59.184Z,6.93
2022-10-19T21:35:34.540Z,6.77
2022-10-19T21:38:03.223Z,6.90
2022-10-19T21:40:38.394Z,7.00
2022-10-19T21:43:06.796Z,7.23
2022-10-19T21:45:45.475Z,7.10
2022-10-19T21:48:13.890Z,7.20
2022-10-19T21:50:48.543Z,7.07
2022-10-19T21:53:25.901Z,6.90
2022-10-19T21:56:02.092Z,7.30
2022-10-19T21:58:30.677Z,6.93
2022-10-19T22:01:13.466Z,7.40
2022-10-19T22:03:41.804Z,7.53
2022-10-19T22:06:17.410Z,7.20
2022-10-19T22:08:48.079Z,7.13
2022-10-19T22:11:23.565Z,7.90
2022-10-19T22:13:55.461Z,7.40
2022-10-19T22:16:32.452Z,7.13
2022-10-19T22:19:01.207Z,7.63
2022-10-19T22:24:09.116Z,7.47
2022-10-19T22:26:46.399Z,7.23
2022-10-19T22:29:15.742Z,7.20
2022-10-19T22:31:52.460Z,8.20
2022-10-19T22:34:21.001Z,7.90
2022-10-19T22:36:56.628Z,7.33
2022-10-19T22:39:27.746Z,7.47
2022-10-19T22:42:16.393Z,7.87
2022-10-19T22:44:51.286Z,7.63
2022-10-19T22:47:27.614Z,7.63
2022-10-19T22:49:56.175Z,8.10
2022-10-19T22:52:38.125Z,8.30
2022-10-19T22:55:14.279Z,8.03
2022-10-19T22:57:49.633Z,8.50
2022-10-19T23:00:18.387Z,8.30
2022-10-19T23:02:54.665Z,8.63
2022-10-19T23:05:23.311Z,7.63
2022-10-19T23:07:58.711Z,8.10
2022-10-19T23:10:27.411Z,8.00
2022-10-19T23:13:02.475Z,7.93
2022-10-19T23:15:30.945Z,8.53
2022-10-19T23:18:08.689Z,8.33
2022-10-19T23:20:37.426Z,8.10
2022-10-19T23:23:12.510Z,8.10
2022-10-19T23:25:41.308Z,8.27
2022-10-19T23:28:16.532Z,8.13
2022-10-19T23:30:45.059Z,8.70
2022-10-19T23:33:21.657Z,8.67
2022-10-19T23:35:50.080Z,8.10
2022-10-19T23:38:25.581Z,8.87
2022-10-19T23:40:54.184Z,8.40
2022-10-19T23:43:29.584Z,8.73
2022-10-19T23:45:58.309Z,8.50
2022-10-19T23:48:34.524Z,8.97
2022-10-19T23:51:24.526Z,8.50
2022-10-19T23:54:00.587Z,9.13
2022-10-19T23:56:31.281Z,9.07
2022-10-19T23:59:06.475Z,8.83
